MMCL/CUL METAR and TAF weather

Enter ICAO airport designator
Station Type Date Time Source
MMCL METAR 2021/01/20 21:52 UTC NOAA

MMCL 202152Z 32002KT 10SM BKN080 OVC100 27/16 A2997 RMK 8/07/ OCNL DROPS ISOL SC


Station Type Date Time Source
MMCL Decoded METAR 2021/01/20 21:52 UTC NOAA

Culiacan, Sin., Mexico (MMCL) 24-49N 107-24W
Jan 20, 2021 - 04:52 PM EST / 2021.01.20 2152 UTC
Wind: from the NW (320 degrees) at 2 MPH (2 KT):0
Visibility: 10 mile(s):0
Sky conditions: overcast
Temperature: 80 F (27 C)
Dew Point: 60 F (16 C)
Relative Humidity: 50%
Pressure (altimeter): 29.97 in. Hg (1014 hPa)
ob: MMCL 202152Z 32002KT 10SM BKN080 OVC100 27/16 A2997 RMK 8/07/ OCNL DROPS ISOL SC
cycle: 22

Station Type Date Time Source
MMCL TAF 2021/01/20 18:13 UTC NOAA

TAF MMCL 201710Z 2018/2118 22010KT P6SM SCT035 BKN120 BKN200
TEMPO 2021/2101 4SM RA BKN030 OVC120
FM210600 22005KT P6SM SCT030 BKN120
FM211200 04005KT 4SM HZ BKN020 OVC100

Example: see airport list